UAL1968 KIAH-KDFW
Flight info
| Callsign | UAL1968 |
|---|---|
| Flight time | N/A |
| Altitude | 32000 |
| Route | BLTWY7 CRIED BEREE3 |
| Aircraft | B737/M-SDE2E3FGHIRWXY/LB1 |
Departure
| Time | 2025-09-05 00:24 |
|---|---|
| Airport | George Bush Intercontinental Airport (KIAH) |
Arrival
| Time | N/A |
|---|---|
| Airport | Dallas Fort Worth International Airport (KDFW) |
| Time | Latitude | Longitude | Altitude | Speed | Heading |
|---|---|---|---|---|---|
| 2025-09-04 23:58 | 29.98940 | -95.34105 | 106 ft | 0 kts | 240° |
| 2025-09-05 00:12 | 29.98963 | -95.34053 | 106 ft | 3 kts | 260° |
| 2025-09-05 00:13 | 29.98930 | -95.34016 | 105 ft | 1 kts | 0° |
| 2025-09-05 00:18 | 29.99177 | -95.34154 | 106 ft | 18 kts | 270° |
| 2025-09-05 00:20 | 29.99176 | -95.34849 | 106 ft | 16 kts | 270° |
| 2025-09-05 00:20 | 29.99175 | -95.34989 | 106 ft | 18 kts | 270° |
| 2025-09-05 00:21 | 29.99176 | -95.35405 | 106 ft | 16 kts | 270° |
| 2025-09-05 00:21 | 29.99037 | -95.35484 | 106 ft | 20 kts | 180° |
| 2025-09-05 00:22 | 29.98728 | -95.35750 | 106 ft | 12 kts | 152° |
| 2025-09-05 00:23 | 29.97390 | -95.34932 | 107 ft | 154 kts | 153° |
| 2025-09-05 00:24 | 29.94116 | -95.33753 | 1564 ft | 188 kts | 199° |
| 2025-09-05 00:25 | 29.94172 | -95.39928 | 3451 ft | 270 kts | 324° |
| 2025-09-05 00:25 | 29.97824 | -95.41000 | 5137 ft | 275 kts | 358° |
| 2025-09-05 00:26 | 30.01644 | -95.41106 | 6868 ft | 278 kts | 1° |
| 2025-09-05 00:26 | 30.03580 | -95.41140 | 7779 ft | 279 kts | 1° |
| 2025-09-05 00:27 | 30.13913 | -95.41392 | 11004 ft | 345 kts | 359° |
| 2025-09-05 00:27 | 30.16365 | -95.41463 | 11538 ft | 357 kts | 359° |
| 2025-09-05 00:28 | 30.21404 | -95.41612 | 13088 ft | 367 kts | 359° |
| 2025-09-05 00:29 | 30.34463 | -95.42834 | 16576 ft | 387 kts | 347° |
| 2025-09-05 00:30 | 30.39781 | -95.44199 | 17861 ft | 396 kts | 347° |
| 2025-09-05 00:30 | 30.45224 | -95.45553 | 18988 ft | 402 kts | 347° |
| 2025-09-05 00:31 | 30.50732 | -95.46899 | 20129 ft | 407 kts | 347° |
| 2025-09-05 00:31 | 30.56323 | -95.48164 | 21198 ft | 412 kts | 348° |
| 2025-09-05 00:31 | 30.59154 | -95.48794 | 21714 ft | 415 kts | 348° |
| 2025-09-05 00:32 | 30.64828 | -95.50070 | 22699 ft | 421 kts | 347° |
| 2025-09-05 00:33 | 30.73541 | -95.52043 | 23981 ft | 429 kts | 347° |
| 2025-09-05 00:33 | 30.79419 | -95.53375 | 24824 ft | 431 kts | 347° |